Main page
METAR-TAF:

METAR-TAF

Airports :

Brighton City Airport (Shoreham Airport)

Brighton, England

latitude: 50-50N, longitude: 000-17W, elevation: 2 m

Current weather observation

The report was made 16 minutes ago, at 15:20 UTC
Wind 4 kt from the South/Southeast
Temperature 9°C
Humidity 93%
Pressure 1017 hPa
Visibility: 0900 m
fog

METAR: EGKA 201520Z 16004KT 0900 FG VV/// 09/08 Q1017

Time: 16:36 (15:36 UTC)

Forecast

The report was made 18 minutes ago, at 15:18 UTC
Forecast valid from 20 at 15 UTC to 20 at 19 UTC
Wind 5 kt from the South/Southeast
Visibility: 0600 m
Broken clouds at a height of 100 ft
fog
Probability 40% :
Temporary
from 20 at 15 UTC to 20 at 19 UTC
Visibility: 5000 m
Few clouds at a height of 300 ft
fog in vicinity

TAF: EGKA 201518Z 2015/2019 15005KT 0600 FG BKN001 PROB40 TEMPO 2015/2019 5000 VCFG FEW003

Weather observations and forecasts of more than 4000 airports (METAR and TAF reports).

The available stations are represented by yellow and red dots on the map.

Hover mouse over dot to see the name of the station.

Then click to see weather observations and forecasts.

To change the map : click on the green buttons with a black cross to zoom in, on the green button with a dash to zoom out, or on the green arrows for adjacent maps.


METAR-TAF: